createdAt,value
2019-05-28T00:00:02.549Z,21.90
2019-05-28T00:02:30.293Z,21.67
2019-05-28T00:05:03.910Z,21.73
2019-05-28T00:07:33.747Z,20.87
2019-05-28T00:10:06.060Z,21.97
2019-05-28T00:12:36.195Z,23.27
2019-05-28T00:15:10.808Z,21.90
2019-05-28T00:17:45.983Z,25.63
2019-05-28T00:20:18.043Z,23.47
2019-05-28T00:22:48.080Z,25.40
2019-05-28T00:25:19.986Z,24.90
2019-05-28T00:27:50.809Z,21.50
2019-05-28T00:30:23.355Z,22.10
2019-05-28T00:32:53.482Z,14.57
2019-05-28T00:35:23.651Z,10.00
2019-05-28T00:37:54.710Z,9.27
2019-05-28T00:40:25.861Z,7.37
2019-05-28T00:42:57.067Z,6.83
2019-05-28T00:45:28.173Z,6.67
2019-05-28T00:47:59.844Z,6.63
2019-05-28T00:50:30.639Z,8.73
2019-05-28T00:53:03.168Z,18.20
2019-05-28T00:55:33.515Z,21.07
2019-05-28T00:58:04.029Z,21.43
2019-05-28T01:00:48.823Z,23.47
2019-05-28T01:03:19.844Z,17.17
2019-05-28T01:05:50.131Z,23.23
2019-05-28T01:08:20.809Z,14.87
2019-05-28T01:10:56.469Z,24.20
2019-05-28T01:13:27.288Z,25.17
2019-05-28T01:15:56.989Z,24.27
2019-05-28T01:18:26.691Z,27.27
2019-05-28T01:20:56.403Z,27.07
2019-05-28T01:23:27.426Z,24.00
2019-05-28T01:26:03.328Z,27.30
2019-05-28T01:28:34.123Z,24.80
2019-05-28T01:31:04.173Z,23.23
2019-05-28T01:33:35.011Z,25.33
2019-05-28T01:36:07.043Z,26.13
2019-05-28T01:38:37.887Z,29.10
2019-05-28T01:41:17.059Z,27.23
2019-05-28T01:43:46.919Z,25.40
2019-05-28T01:46:19.743Z,23.20
2019-05-28T01:48:49.941Z,26.43
2019-05-28T01:51:20.056Z,26.23
2019-05-28T01:53:50.252Z,29.27
2019-05-28T01:56:21.245Z,28.23
2019-05-28T01:58:53.231Z,25.87
2019-05-28T02:01:23.344Z,28.97
2019-05-28T02:03:53.484Z,27.70
2019-05-28T02:06:30.370Z,27.80
2019-05-28T02:09:00.423Z,33.93
2019-05-28T02:11:36.352Z,24.10
2019-05-28T02:14:06.396Z,29.07
2019-05-28T02:16:36.501Z,27.30
2019-05-28T02:19:06.607Z,26.70
2019-05-28T02:21:36.720Z,28.10
2019-05-28T02:24:11.796Z,13.00
2019-05-28T02:26:42.584Z,6.57
2019-05-28T02:29:12.283Z,6.63
2019-05-28T02:31:42.251Z,5.40
2019-05-28T02:34:13.287Z,5.93
2019-05-28T02:36:43.388Z,5.83
2019-05-28T02:39:19.176Z,9.63
2019-05-28T02:41:49.283Z,8.53
2019-05-28T02:44:19.128Z,6.07
2019-05-28T02:46:50.017Z,6.70
2019-05-28T02:49:20.127Z,7.83
2019-05-28T02:51:51.720Z,5.90
2019-05-28T02:54:22.163Z,9.30
2019-05-28T02:56:54.184Z,6.77
2019-05-28T02:59:25.378Z,7.00
2019-05-28T03:01:58.941Z,6.17
2019-05-28T03:04:30.582Z,6.97
2019-05-28T03:07:02.275Z,6.83
2019-05-28T03:09:33.000Z,7.03
2019-05-28T03:12:03.101Z,7.60
2019-05-28T03:14:33.227Z,10.13
2019-05-28T03:17:06.055Z,6.90
2019-05-28T03:19:37.937Z,7.93
2019-05-28T03:22:10.224Z,7.50
2019-05-28T03:24:41.677Z,9.87
2019-05-28T03:27:11.744Z,7.10
2019-05-28T03:29:41.829Z,7.40
2019-05-28T03:32:13.940Z,7.47
2019-05-28T03:34:44.848Z,8.57
2019-05-28T03:37:15.492Z,13.23
2019-05-28T03:39:48.524Z,6.87
2019-05-28T03:42:21.256Z,6.20
2019-05-28T03:44:52.388Z,6.73
2019-05-28T03:47:24.416Z,7.87
2019-05-28T03:49:54.247Z,7.30
2019-05-28T03:52:24.093Z,5.83
2019-05-28T03:54:55.788Z,6.93
2019-05-28T03:57:27.648Z,6.53
2019-05-28T03:59:58.083Z,6.53
2019-05-28T04:02:29.146Z,7.77
2019-05-28T04:05:01.509Z,10.60
2019-05-28T04:07:33.516Z,6.00
2019-05-28T04:10:06.976Z,10.53
2019-05-28T04:12:37.096Z,7.57
2019-05-28T04:15:08.465Z,5.03
2019-05-28T04:17:48.258Z,9.30
2019-05-28T04:20:21.252Z,5.30
2019-05-28T04:23:08.324Z,5.20
2019-05-28T04:25:39.226Z,4.90
2019-05-28T04:28:08.947Z,5.10
2019-05-28T04:30:44.205Z,5.27
2019-05-28T04:33:16.798Z,6.03
2019-05-28T04:35:46.636Z,5.90
2019-05-28T04:38:16.316Z,5.90
2019-05-28T04:40:46.968Z,6.10
2019-05-28T04:43:17.565Z,4.73
2019-05-28T04:45:48.196Z,5.97
2019-05-28T04:48:18.184Z,9.00
2019-05-28T04:50:48.302Z,5.90
2019-05-28T04:53:20.339Z,5.50
2019-05-28T04:55:50.448Z,5.23
2019-05-28T04:58:22.548Z,5.50
2019-05-28T05:00:52.661Z,4.80
2019-05-28T05:03:23.425Z,6.00
2019-05-28T05:05:53.390Z,6.23
2019-05-28T05:08:23.488Z,4.83
2019-05-28T05:13:36.137Z,3.97
2019-05-28T05:16:06.244Z,4.93
2019-05-28T05:18:37.314Z,5.67
2019-05-28T05:21:07.461Z,4.73
2019-05-28T05:23:37.573Z,3.93
2019-05-28T05:26:07.402Z,5.33
2019-05-28T05:28:37.364Z,6.40
2019-05-28T05:31:07.255Z,5.57
2019-05-28T05:33:37.268Z,4.30
2019-05-28T05:36:07.353Z,5.53
2019-05-28T05:38:38.480Z,4.30
2019-05-28T05:41:08.659Z,4.17
2019-05-28T05:43:41.538Z,4.97
2019-05-28T05:46:11.680Z,4.43
2019-05-28T05:48:41.700Z,4.17
2019-05-28T05:51:11.529Z,4.23
2019-05-28T05:53:43.225Z,4.00
2019-05-28T05:56:19.040Z,4.53
2019-05-28T05:58:51.110Z,6.37
2019-05-28T06:01:20.981Z,4.80
2019-05-28T06:03:51.954Z,4.80
2019-05-28T06:06:23.761Z,4.03
2019-05-28T06:08:59.784Z,7.30
2019-05-28T06:11:30.713Z,4.73
2019-05-28T06:14:00.834Z,5.10
2019-05-28T06:16:30.942Z,5.40
2019-05-28T06:19:00.782Z,4.27
2019-05-28T06:21:30.752Z,10.93
2019-05-28T06:24:00.873Z,6.20
2019-05-28T06:26:37.029Z,3.50
2019-05-28T06:29:07.164Z,5.77
2019-05-28T06:31:37.025Z,4.00
2019-05-28T06:34:08.022Z,4.13
2019-05-28T06:36:38.148Z,3.83
2019-05-28T06:39:08.988Z,7.23
2019-05-28T06:41:38.776Z,3.33
2019-05-28T06:44:08.740Z,3.37
2019-05-28T06:46:38.838Z,4.13
2019-05-28T06:49:09.869Z,4.43
2019-05-28T06:51:39.713Z,5.07
2019-05-28T06:54:11.898Z,4.37
2019-05-28T06:56:46.572Z,10.50
2019-05-28T06:59:16.965Z,4.20
2019-05-28T07:01:47.090Z,10.33
2019-05-28T07:04:31.863Z,4.20
2019-05-28T07:06:49.020Z,8.03
2019-05-28T07:09:24.701Z,5.00
2019-05-28T07:11:54.670Z,4.50
2019-05-28T07:14:24.780Z,4.77
2019-05-28T07:16:55.569Z,5.37
2019-05-28T07:19:26.521Z,5.20
2019-05-28T07:21:56.624Z,7.40
2019-05-28T07:24:27.724Z,5.10
2019-05-28T07:27:06.994Z,6.57
2019-05-28T07:29:42.284Z,13.90
2019-05-28T07:32:12.377Z,9.63
2019-05-28T07:34:42.470Z,11.83
2019-05-28T07:37:18.849Z,7.30
2019-05-28T07:39:55.011Z,9.40
2019-05-28T07:42:32.575Z,6.60
2019-05-28T07:44:56.952Z,6.93
2019-05-28T07:47:26.798Z,7.10
2019-05-28T07:49:57.774Z,6.23
2019-05-28T07:52:27.609Z,6.27
2019-05-28T07:54:57.345Z,8.13
2019-05-28T07:57:33.138Z,6.93
2019-05-28T08:00:05.564Z,6.60
2019-05-28T08:02:35.054Z,8.27
2019-05-28T08:05:06.381Z,6.37
2019-05-28T08:07:39.537Z,7.77
2019-05-28T08:10:12.651Z,8.73
2019-05-28T08:12:42.761Z,11.40
2019-05-28T08:15:13.164Z,12.83
2019-05-28T08:17:43.261Z,8.13
2019-05-28T08:20:19.207Z,8.13
2019-05-28T08:22:49.337Z,5.47
2019-05-28T08:25:45.955Z,5.53
2019-05-28T08:28:18.511Z,10.60
2019-05-28T08:30:35.481Z,5.50
2019-05-28T08:33:24.172Z,7.30
2019-05-28T08:35:56.254Z,8.47
2019-05-28T08:38:26.430Z,5.23
2019-05-28T08:40:56.533Z,6.30
2019-05-28T08:43:32.370Z,5.17
2019-05-28T08:46:09.145Z,5.37
2019-05-28T08:48:38.997Z,8.10
2019-05-28T08:51:10.305Z,6.00
2019-05-28T08:53:41.238Z,5.83
2019-05-28T08:56:12.170Z,5.60
2019-05-28T08:58:42.785Z,7.73
2019-05-28T09:01:13.032Z,9.87
2019-05-28T09:04:02.446Z,7.40
2019-05-28T09:06:32.302Z,8.40
2019-05-28T09:09:02.265Z,15.10
2019-05-28T09:11:32.398Z,6.77
2019-05-28T09:14:02.649Z,8.83
2019-05-28T09:16:39.786Z,10.40
2019-05-28T09:19:11.874Z,8.63
2019-05-28T09:21:48.220Z,7.77
2019-05-28T09:24:18.237Z,7.20
2019-05-28T09:26:48.355Z,8.27
2019-05-28T09:29:24.353Z,10.90
2019-05-28T09:31:54.321Z,6.20
2019-05-28T09:34:24.435Z,6.40
2019-05-28T09:36:56.521Z,7.60
2019-05-28T09:39:26.623Z,5.40
2019-05-28T09:41:56.717Z,4.50
2019-05-28T09:44:26.834Z,4.50
2019-05-28T09:46:57.917Z,9.10
2019-05-28T09:49:28.032Z,4.70
2019-05-28T09:51:58.126Z,4.90
2019-05-28T09:54:29.186Z,4.83
2019-05-28T09:57:01.166Z,6.30
2019-05-28T09:59:52.714Z,5.13
2019-05-28T10:02:27.212Z,4.03
2019-05-28T10:05:01.840Z,4.10
2019-05-28T10:07:37.533Z,2.87
2019-05-28T10:10:08.597Z,4.17
2019-05-28T10:12:43.651Z,4.50
2019-05-28T10:15:13.719Z,3.77
2019-05-28T10:17:43.417Z,5.00
2019-05-28T10:20:14.546Z,4.10
2019-05-28T10:22:45.609Z,5.03
2019-05-28T10:25:15.788Z,6.93
2019-05-28T10:28:00.163Z,5.03
2019-05-28T10:30:20.046Z,7.13
2019-05-28T10:32:49.885Z,4.50
2019-05-28T10:35:20.751Z,6.40
2019-05-28T10:37:52.810Z,5.93
2019-05-28T10:40:23.309Z,6.53
2019-05-28T10:42:53.176Z,12.00
2019-05-28T10:45:26.085Z,6.63
2019-05-28T10:47:58.121Z,6.47
2019-05-28T10:50:33.957Z,7.77
2019-05-28T10:53:05.152Z,5.57
2019-05-28T10:55:35.332Z,5.33
2019-05-28T10:58:24.837Z,5.67
2019-05-28T11:01:02.739Z,6.27
2019-05-28T11:03:32.841Z,5.00
2019-05-28T11:06:02.952Z,3.77
2019-05-28T11:08:33.060Z,5.10
2019-05-28T11:11:03.902Z,5.03
2019-05-28T11:13:33.605Z,5.70
2019-05-28T11:16:03.633Z,4.83
2019-05-28T11:18:33.870Z,4.57
2019-05-28T11:21:09.763Z,3.60
2019-05-28T11:23:37.765Z,4.60
2019-05-28T11:26:12.125Z,4.87
2019-05-28T11:28:48.125Z,4.77
2019-05-28T11:31:23.198Z,4.53
2019-05-28T11:33:53.285Z,3.73
2019-05-28T11:36:26.058Z,6.90
2019-05-28T11:38:56.153Z,2.70
2019-05-28T11:41:41.576Z,2.77
2019-05-28T11:44:01.058Z,2.80
2019-05-28T11:46:31.175Z,2.43
2019-05-28T11:49:02.973Z,3.30
2019-05-28T11:51:32.942Z,3.70
2019-05-28T11:54:03.048Z,3.40
2019-05-28T11:56:34.096Z,7.50
2019-05-28T11:59:14.248Z,4.97
2019-05-28T12:01:45.140Z,4.23
2019-05-28T12:04:15.250Z,7.40
2019-05-28T12:06:45.329Z,4.67
2019-05-28T12:09:15.459Z,4.57
2019-05-28T12:11:45.563Z,4.43
2019-05-28T12:14:15.971Z,5.47
2019-05-28T12:16:47.018Z,2.83
2019-05-28T12:19:17.098Z,2.73
2019-05-28T12:21:47.954Z,4.33
2019-05-28T12:24:17.903Z,6.20
2019-05-28T12:26:48.074Z,2.63
2019-05-28T12:29:18.165Z,3.07
2019-05-28T12:31:48.254Z,3.07
2019-05-28T12:34:18.365Z,3.50
2019-05-28T12:36:52.469Z,3.60
2019-05-28T12:39:22.610Z,17.30
2019-05-28T12:42:01.745Z,19.83
2019-05-28T12:44:41.055Z,9.33
2019-05-28T12:46:59.329Z,12.80
2019-05-28T12:49:29.169Z,10.87
2019-05-28T12:51:59.144Z,13.17
2019-05-28T12:54:38.245Z,12.50
2019-05-28T12:57:08.387Z,13.63
2019-05-28T12:59:38.502Z,10.17
2019-05-28T13:02:13.058Z,10.00
2019-05-28T13:04:51.929Z,12.07
2019-05-28T13:07:22.975Z,18.43
2019-05-28T13:09:55.814Z,10.10
2019-05-28T13:12:25.534Z,14.93
2019-05-28T13:14:55.487Z,9.83
2019-05-28T13:17:26.516Z,8.47
2019-05-28T13:19:58.934Z,13.50
2019-05-28T13:22:30.037Z,9.67
2019-05-28T13:25:00.177Z,9.20
2019-05-28T13:27:36.323Z,10.67
2019-05-28T13:30:20.520Z,7.93
2019-05-28T13:32:51.077Z,11.30
2019-05-28T13:35:24.400Z,9.50
2019-05-28T13:37:55.411Z,9.00
2019-05-28T13:40:25.322Z,7.07
2019-05-28T13:42:55.375Z,10.50
2019-05-28T13:45:25.189Z,6.87
2019-05-28T13:47:57.141Z,5.50
2019-05-28T13:50:29.489Z,5.77
2019-05-28T13:53:00.884Z,6.00
2019-05-28T13:55:30.723Z,4.23
2019-05-28T13:58:00.680Z,4.50
2019-05-28T14:00:30.963Z,3.57
2019-05-28T14:03:00.933Z,4.30
2019-05-28T14:05:31.058Z,4.40
2019-05-28T14:08:00.981Z,3.50
2019-05-28T14:10:30.951Z,2.00
2019-05-28T14:13:01.073Z,3.23
2019-05-28T14:15:40.057Z,1.97
2019-05-28T14:18:10.194Z,1.90
2019-05-28T14:20:40.327Z,1.77
2019-05-28T14:23:10.161Z,1.80
2019-05-28T14:25:40.141Z,2.20
2019-05-28T14:28:13.701Z,1.80
2019-05-28T14:31:00.704Z,1.97
2019-05-28T14:33:38.342Z,2.57
2019-05-28T14:36:08.442Z,2.20
2019-05-28T14:38:40.477Z,3.73
2019-05-28T14:41:10.680Z,2.33
2019-05-28T14:43:47.661Z,2.73
2019-05-28T14:46:19.567Z,7.17
2019-05-28T14:48:49.398Z,1.87
2019-05-28T14:51:21.043Z,2.57
2019-05-28T14:53:51.040Z,3.10
2019-05-28T14:56:20.890Z,2.40
2019-05-28T14:58:52.810Z,5.03
2019-05-28T15:01:23.821Z,2.83
2019-05-28T15:03:53.918Z,2.80
2019-05-28T15:06:24.036Z,4.87
2019-05-28T15:08:56.138Z,2.77
2019-05-28T15:11:27.186Z,3.17
2019-05-28T15:13:57.282Z,3.07
2019-05-28T15:16:28.098Z,5.83
2019-05-28T15:19:03.851Z,3.70
2019-05-28T15:21:33.954Z,4.10
2019-05-28T15:24:06.051Z,2.30
2019-05-28T15:26:38.128Z,3.43
2019-05-28T15:29:08.211Z,2.20
2019-05-28T15:31:38.332Z,2.87
2019-05-28T15:34:08.476Z,1.77
2019-05-28T15:36:38.582Z,1.90
2019-05-28T15:39:14.654Z,5.87
2019-05-28T15:41:46.719Z,5.13
2019-05-28T15:44:22.618Z,1.83
2019-05-28T15:46:59.466Z,2.60
2019-05-28T15:49:30.564Z,2.63
2019-05-28T15:52:07.774Z,2.07
2019-05-28T15:54:31.666Z,1.70
2019-05-28T15:57:02.607Z,2.10
2019-05-28T15:59:32.706Z,6.73
2019-05-28T16:02:02.819Z,7.93
2019-05-28T16:04:32.904Z,3.30
2019-05-28T16:07:14.907Z,2.33
2019-05-28T16:09:55.743Z,2.10
2019-05-28T16:12:18.333Z,1.97
2019-05-28T16:14:51.194Z,1.90
2019-05-28T16:17:22.111Z,2.57
2019-05-28T16:19:53.128Z,6.43
2019-05-28T16:22:23.228Z,2.93
2019-05-28T16:24:53.427Z,2.70
2019-05-28T16:27:27.127Z,2.40
2019-05-28T16:29:56.978Z,2.67
2019-05-28T16:32:30.423Z,2.37
2019-05-28T16:35:02.663Z,2.50
2019-05-28T16:37:32.595Z,2.10
2019-05-28T16:40:13.913Z,3.37
2019-05-28T16:42:34.394Z,3.50
2019-05-28T16:45:08.343Z,2.90
2019-05-28T16:47:41.622Z,3.30
2019-05-28T16:50:13.693Z,2.80
2019-05-28T16:52:49.402Z,2.83
2019-05-28T16:55:19.591Z,2.93
2019-05-28T16:57:49.456Z,4.30
2019-05-28T17:00:21.598Z,4.97
2019-05-28T17:02:51.764Z,3.57
2019-05-28T17:05:21.631Z,3.83
2019-05-28T17:07:51.597Z,2.27
2019-05-28T17:10:32.131Z,5.30
2019-05-28T17:12:55.430Z,2.30
2019-05-28T17:15:25.234Z,2.57
2019-05-28T17:17:55.004Z,2.90
2019-05-28T17:20:26.958Z,3.03
2019-05-28T17:22:56.839Z,3.87
2019-05-28T17:25:26.841Z,5.83
2019-05-28T17:27:58.711Z,5.07
2019-05-28T17:30:28.671Z,2.47
2019-05-28T17:33:05.741Z,2.27
2019-05-28T17:35:39.644Z,2.50
2019-05-28T17:38:10.551Z,3.70
2019-05-28T17:40:48.634Z,2.47
2019-05-28T17:43:13.199Z,4.07
2019-05-28T17:45:43.330Z,2.30
2019-05-28T17:48:13.668Z,5.20
2019-05-28T17:50:45.975Z,2.60
2019-05-28T17:53:15.887Z,2.37
2019-05-28T17:55:46.558Z,2.30
2019-05-28T17:58:22.349Z,2.90
2019-05-28T18:00:54.162Z,4.83
2019-05-28T18:03:30.097Z,2.10
2019-05-28T18:05:59.807Z,5.43
2019-05-28T18:08:29.770Z,5.03
2019-05-28T18:11:07.551Z,2.40
2019-05-28T18:13:38.535Z,3.07
2019-05-28T18:16:08.632Z,2.77
2019-05-28T18:18:39.447Z,6.23
2019-05-28T18:21:09.410Z,8.20
2019-05-28T18:23:39.606Z,6.67
2019-05-28T18:26:09.710Z,5.03
2019-05-28T18:28:39.558Z,6.40
2019-05-28T18:31:09.560Z,3.40
2019-05-28T18:33:50.093Z,9.00
2019-05-28T18:36:22.046Z,3.70
2019-05-28T18:38:52.015Z,8.63
2019-05-28T18:41:22.307Z,3.77
2019-05-28T18:43:54.242Z,6.03
2019-05-28T18:46:24.226Z,2.67
2019-05-28T18:48:54.987Z,5.17
2019-05-28T18:51:25.011Z,3.10
2019-05-28T18:53:55.124Z,14.33
2019-05-28T18:56:25.236Z,9.57
2019-05-28T18:58:57.010Z,7.77
2019-05-28T19:01:27.735Z,24.17
2019-05-28T19:04:05.763Z,19.27
2019-05-28T19:06:35.875Z,14.23
2019-05-28T19:09:11.366Z,10.60
2019-05-28T19:11:40.972Z,7.57
2019-05-28T19:14:11.110Z,7.70
2019-05-28T19:16:42.746Z,7.33
2019-05-28T19:19:12.802Z,4.07
2019-05-28T19:21:42.766Z,4.07
2019-05-28T19:24:12.606Z,8.13
2019-05-28T19:26:46.930Z,2.80
2019-05-28T19:29:17.026Z,4.63
2019-05-28T19:31:47.974Z,6.53
2019-05-28T19:34:19.734Z,3.70
2019-05-28T19:36:50.703Z,4.80
2019-05-28T19:39:24.966Z,4.47
2019-05-28T19:41:55.812Z,5.20
2019-05-28T19:44:32.282Z,3.77
2019-05-28T19:47:03.414Z,3.57
2019-05-28T19:49:33.516Z,3.30
2019-05-28T19:52:03.700Z,5.17
2019-05-28T19:54:33.538Z,6.83
2019-05-28T19:57:03.251Z,6.33
2019-05-28T19:59:34.053Z,7.13
2019-05-28T20:02:04.194Z,5.37
2019-05-28T20:04:34.582Z,3.07
2019-05-28T20:07:04.867Z,2.57
2019-05-28T20:09:34.998Z,2.50
2019-05-28T20:12:12.131Z,7.33
2019-05-28T20:14:36.494Z,3.47
2019-05-28T20:17:06.459Z,2.70
2019-05-28T20:19:36.590Z,5.80
2019-05-28T20:22:06.435Z,2.67
2019-05-28T20:24:38.366Z,2.70
2019-05-28T20:27:08.463Z,2.97
2019-05-28T20:29:38.662Z,2.93
2019-05-28T20:32:09.754Z,2.07
2019-05-28T20:34:41.648Z,2.43
2019-05-28T20:37:11.483Z,2.23
2019-05-28T20:39:41.519Z,4.37
2019-05-28T20:42:26.983Z,2.73
2019-05-28T20:44:52.175Z,2.87
2019-05-28T20:47:23.230Z,4.30
2019-05-28T20:49:53.342Z,9.30
2019-05-28T20:52:23.496Z,4.33
2019-05-28T20:54:55.101Z,2.70
2019-05-28T20:57:25.444Z,2.63
2019-05-28T20:59:55.794Z,2.70
2019-05-28T21:02:28.487Z,2.50
2019-05-28T21:04:59.418Z,2.90
2019-05-28T21:07:30.324Z,3.63
2019-05-28T21:10:00.198Z,2.60
2019-05-28T21:12:42.784Z,2.00
2019-05-28T21:15:15.952Z,2.43
2019-05-28T21:17:55.561Z,2.17
2019-05-28T21:20:31.666Z,2.30
2019-05-28T21:23:01.763Z,2.83
2019-05-28T21:25:40.091Z,3.10
2019-05-28T21:28:10.545Z,2.83
2019-05-28T21:30:44.821Z,3.07
2019-05-28T21:33:17.078Z,3.40
2019-05-28T21:35:47.180Z,4.33
2019-05-28T21:38:17.263Z,3.43
2019-05-28T21:40:49.294Z,3.10
2019-05-28T21:43:20.758Z,6.70
2019-05-28T21:45:51.886Z,3.77
2019-05-28T21:48:22.105Z,3.80
2019-05-28T21:50:53.142Z,2.60
2019-05-28T21:53:31.078Z,3.27
2019-05-28T21:56:01.460Z,2.53
2019-05-28T21:58:31.274Z,3.33
2019-05-28T22:01:23.688Z,2.67
2019-05-28T22:03:53.786Z,3.27
2019-05-28T22:06:24.218Z,9.87
2019-05-28T22:08:55.645Z,4.87
2019-05-28T22:11:25.782Z,3.40
2019-05-28T22:13:56.044Z,3.10
2019-05-28T22:16:32.164Z,2.83
2019-05-28T22:19:02.804Z,4.00
2019-05-28T22:21:39.708Z,5.60
2019-05-28T22:24:16.248Z,5.03
2019-05-28T22:26:47.904Z,3.27
2019-05-28T22:29:17.862Z,2.77
2019-05-28T22:31:56.970Z,2.90
2019-05-28T22:34:27.918Z,3.47
2019-05-28T22:36:58.399Z,5.40
2019-05-28T22:39:29.685Z,3.20
2019-05-28T22:41:59.727Z,6.27
2019-05-28T22:44:31.670Z,3.27
2019-05-28T22:47:03.169Z,5.30
2019-05-28T22:49:33.267Z,4.70
2019-05-28T22:52:03.935Z,4.67
2019-05-28T22:54:33.763Z,5.47
2019-05-28T22:57:06.720Z,2.90
2019-05-28T22:59:37.570Z,2.83
2019-05-28T23:02:07.278Z,4.80
2019-05-28T23:04:37.232Z,3.30
2019-05-28T23:07:09.434Z,5.97
2019-05-28T23:09:39.310Z,3.07
2019-05-28T23:12:10.059Z,4.67
2019-05-28T23:14:41.824Z,3.57
2019-05-28T23:17:11.578Z,7.37
2019-05-28T23:19:44.071Z,4.73
2019-05-28T23:22:14.154Z,3.17
2019-05-28T23:24:44.614Z,3.27
2019-05-28T23:27:14.479Z,5.20
2019-05-28T23:29:46.414Z,3.00
2019-05-28T23:32:16.244Z,2.70
2019-05-28T23:34:46.902Z,4.43
2019-05-28T23:37:23.630Z,2.27
2019-05-28T23:39:58.663Z,2.50
2019-05-28T23:42:28.792Z,1.83
2019-05-28T23:44:59.910Z,2.73
2019-05-28T23:47:30.014Z,4.10
2019-05-28T23:50:01.116Z,2.70
2019-05-28T23:52:31.407Z,3.20
2019-05-28T23:55:01.506Z,2.70
2019-05-28T23:57:37.091Z,3.27
